sensor_id;sensor_type;location;lat;lon;timestamp;temperature;humidity
56374;DHT22;58212;47.034;7.376;2022-12-18T00:00:45;0.40;99.90
56374;DHT22;58212;47.034;7.376;2022-12-18T00:03:15;0.20;99.90
56374;DHT22;58212;47.034;7.376;2022-12-18T00:05:48;0.50;99.90
56374;DHT22;58212;47.034;7.376;2022-12-18T00:08:15;0.40;99.90
56374;DHT22;58212;47.034;7.376;2022-12-18T00:10:43;0.40;99.90
56374;DHT22;58212;47.034;7.376;2022-12-18T00:13:13;0.00;99.90
56374;DHT22;58212;47.034;7.376;2022-12-18T00:15:40;0.00;99.90
56374;DHT22;58212;47.034;7.376;2022-12-18T00:18:08;0.20;99.90
56374;DHT22;58212;47.034;7.376;2022-12-18T00:20:39;0.50;99.90
56374;DHT22;58212;47.034;7.376;2022-12-18T00:23:06;0.60;99.90
56374;DHT22;58212;47.034;7.376;2022-12-18T00:25:34;0.60;99.90
56374;DHT22;58212;47.034;7.376;2022-12-18T00:28:04;0.70;99.90
56374;DHT22;58212;47.034;7.376;2022-12-18T00:30:31;0.50;99.90
56374;DHT22;58212;47.034;7.376;2022-12-18T00:32:58;0.40;99.90
56374;DHT22;58212;47.034;7.376;2022-12-18T00:35:25;0.40;99.90
56374;DHT22;58212;47.034;7.376;2022-12-18T00:37:53;0.40;99.90
56374;DHT22;58212;47.034;7.376;2022-12-18T00:40:23;0.40;99.90
56374;DHT22;58212;47.034;7.376;2022-12-18T00:42:53;0.50;99.90
56374;DHT22;58212;47.034;7.376;2022-12-18T00:45:22;0.60;99.90
56374;DHT22;58212;47.034;7.376;2022-12-18T00:47:49;0.40;99.90
56374;DHT22;58212;47.034;7.376;2022-12-18T00:50:16;0.40;99.90
56374;DHT22;58212;47.034;7.376;2022-12-18T00:52:43;0.40;99.90
56374;DHT22;58212;47.034;7.376;2022-12-18T00:55:13;0.40;99.90
56374;DHT22;58212;47.034;7.376;2022-12-18T00:57:40;0.50;99.90
56374;DHT22;58212;47.034;7.376;2022-12-18T01:00:10;0.60;99.90
56374;DHT22;58212;47.034;7.376;2022-12-18T01:02:37;0.40;99.90
56374;DHT22;58212;47.034;7.376;2022-12-18T01:05:07;0.60;99.90
56374;DHT22;58212;47.034;7.376;2022-12-18T01:07:34;0.60;99.90
56374;DHT22;58212;47.034;7.376;2022-12-18T01:10:03;0.60;99.90
56374;DHT22;58212;47.034;7.376;2022-12-18T01:12:32;0.50;99.90
56374;DHT22;58212;47.034;7.376;2022-12-18T01:14:59;0.60;99.90
56374;DHT22;58212;47.034;7.376;2022-12-18T01:17:26;0.50;99.90
56374;DHT22;58212;47.034;7.376;2022-12-18T01:19:53;0.50;99.90
56374;DHT22;58212;47.034;7.376;2022-12-18T01:22:20;0.30;99.90
56374;DHT22;58212;47.034;7.376;2022-12-18T01:24:47;0.30;99.90
56374;DHT22;58212;47.034;7.376;2022-12-18T01:27:14;0.30;99.90
56374;DHT22;58212;47.034;7.376;2022-12-18T01:29:43;0.40;99.90
56374;DHT22;58212;47.034;7.376;2022-12-18T01:32:10;0.50;99.90
56374;DHT22;58212;47.034;7.376;2022-12-18T01:34:37;0.40;99.90
56374;DHT22;58212;47.034;7.376;2022-12-18T01:37:04;0.50;99.90
56374;DHT22;58212;47.034;7.376;2022-12-18T01:39:32;0.50;99.90
56374;DHT22;58212;47.034;7.376;2022-12-18T01:42:00;0.60;99.90
56374;DHT22;58212;47.034;7.376;2022-12-18T01:45:02;0.50;99.90
56374;DHT22;58212;47.034;7.376;2022-12-18T01:47:36;0.50;99.90
56374;DHT22;58212;47.034;7.376;2022-12-18T01:50:10;0.40;99.90
56374;DHT22;58212;47.034;7.376;2022-12-18T01:52:38;0.50;99.90
56374;DHT22;58212;47.034;7.376;2022-12-18T01:55:07;0.70;99.90
56374;DHT22;58212;47.034;7.376;2022-12-18T01:57:35;0.70;99.90
56374;DHT22;58212;47.034;7.376;2022-12-18T02:00:08;0.80;99.90
56374;DHT22;58212;47.034;7.376;2022-12-18T02:02:39;0.90;99.90
56374;DHT22;58212;47.034;7.376;2022-12-18T02:05:07;0.80;99.90
56374;DHT22;58212;47.034;7.376;2022-12-18T02:07:43;0.80;99.90
56374;DHT22;58212;47.034;7.376;2022-12-18T02:10:19;0.80;99.90
56374;DHT22;58212;47.034;7.376;2022-12-18T02:12:51;0.90;99.90
56374;DHT22;58212;47.034;7.376;2022-12-18T02:15:25;0.70;99.90
56374;DHT22;58212;47.034;7.376;2022-12-18T02:17:57;0.50;99.90
56374;DHT22;58212;47.034;7.376;2022-12-18T02:20:30;0.60;99.90
56374;DHT22;58212;47.034;7.376;2022-12-18T02:23:06;0.70;99.90
56374;DHT22;58212;47.034;7.376;2022-12-18T02:26:06;0.60;99.90
56374;DHT22;58212;47.034;7.376;2022-12-18T02:28:39;0.60;99.90
56374;DHT22;58212;47.034;7.376;2022-12-18T02:31:13;0.60;99.90
56374;DHT22;58212;47.034;7.376;2022-12-18T02:33:44;0.40;99.90
56374;DHT22;58212;47.034;7.376;2022-12-18T02:36:15;0.70;99.90
56374;DHT22;58212;47.034;7.376;2022-12-18T02:38:44;0.70;99.90
56374;DHT22;58212;47.034;7.376;2022-12-18T02:41:18;0.80;99.90
56374;DHT22;58212;47.034;7.376;2022-12-18T02:43:49;0.80;99.90
56374;DHT22;58212;47.034;7.376;2022-12-18T02:46:32;0.90;99.90
56374;DHT22;58212;47.034;7.376;2022-12-18T02:49:20;0.90;99.90
56374;DHT22;58212;47.034;7.376;2022-12-18T02:51:52;0.80;99.90
56374;DHT22;58212;47.034;7.376;2022-12-18T02:54:28;0.90;99.90
56374;DHT22;58212;47.034;7.376;2022-12-18T02:57:10;0.80;99.90
56374;DHT22;58212;47.034;7.376;2022-12-18T02:59:43;0.80;99.90
56374;DHT22;58212;47.034;7.376;2022-12-18T03:02:20;0.80;99.90
56374;DHT22;58212;47.034;7.376;2022-12-18T03:04:49;0.50;99.90
56374;DHT22;58212;47.034;7.376;2022-12-18T03:07:26;0.40;99.90
56374;DHT22;58212;47.034;7.376;2022-12-18T03:09:56;0.50;99.90
56374;DHT22;58212;47.034;7.376;2022-12-18T03:12:30;0.70;99.90
56374;DHT22;58212;47.034;7.376;2022-12-18T03:15:04;0.80;99.90
56374;DHT22;58212;47.034;7.376;2022-12-18T03:17:36;0.80;99.90
56374;DHT22;58212;47.034;7.376;2022-12-18T03:20:06;0.80;99.90
56374;DHT22;58212;47.034;7.376;2022-12-18T03:22:36;0.70;99.90
56374;DHT22;58212;47.034;7.376;2022-12-18T03:25:07;0.70;99.90
56374;DHT22;58212;47.034;7.376;2022-12-18T03:27:43;0.70;99.90
56374;DHT22;58212;47.034;7.376;2022-12-18T03:30:15;0.60;99.90
56374;DHT22;58212;47.034;7.376;2022-12-18T03:32:47;0.80;99.90
56374;DHT22;58212;47.034;7.376;2022-12-18T03:35:20;0.80;99.90
56374;DHT22;58212;47.034;7.376;2022-12-18T03:37:48;0.70;99.90
56374;DHT22;58212;47.034;7.376;2022-12-18T03:40:16;0.60;99.90
56374;DHT22;58212;47.034;7.376;2022-12-18T03:42:48;0.70;99.90
56374;DHT22;58212;47.034;7.376;2022-12-18T03:45:21;0.70;99.90
56374;DHT22;58212;47.034;7.376;2022-12-18T03:47:59;0.70;99.90
56374;DHT22;58212;47.034;7.376;2022-12-18T03:50:37;0.70;99.90
56374;DHT22;58212;47.034;7.376;2022-12-18T03:53:17;0.60;99.90
56374;DHT22;58212;47.034;7.376;2022-12-18T03:55:48;0.70;99.90
56374;DHT22;58212;47.034;7.376;2022-12-18T03:58:20;0.70;99.90
56374;DHT22;58212;47.034;7.376;2022-12-18T04:00:57;0.70;99.90
56374;DHT22;58212;47.034;7.376;2022-12-18T04:03:26;0.70;99.90
56374;DHT22;58212;47.034;7.376;2022-12-18T04:05:57;0.60;99.90
56374;DHT22;58212;47.034;7.376;2022-12-18T04:08:28;0.70;99.90
56374;DHT22;58212;47.034;7.376;2022-12-18T04:11:05;0.70;99.90
56374;DHT22;58212;47.034;7.376;2022-12-18T04:13:36;0.70;99.90
56374;DHT22;58212;47.034;7.376;2022-12-18T04:16:07;0.70;99.90
56374;DHT22;58212;47.034;7.376;2022-12-18T04:18:38;0.60;99.90
56374;DHT22;58212;47.034;7.376;2022-12-18T04:21:05;0.60;99.90
56374;DHT22;58212;47.034;7.376;2022-12-18T04:23:32;0.70;99.90
56374;DHT22;58212;47.034;7.376;2022-12-18T04:26:01;0.70;99.90
56374;DHT22;58212;47.034;7.376;2022-12-18T04:28:52;0.70;99.90
56374;DHT22;58212;47.034;7.376;2022-12-18T04:31:20;0.70;99.90
56374;DHT22;58212;47.034;7.376;2022-12-18T04:33:47;0.70;99.90
56374;DHT22;58212;47.034;7.376;2022-12-18T04:36:14;0.80;99.90
56374;DHT22;58212;47.034;7.376;2022-12-18T04:38:42;0.70;99.90
56374;DHT22;58212;47.034;7.376;2022-12-18T04:41:13;0.60;99.90
56374;DHT22;58212;47.034;7.376;2022-12-18T04:43:44;0.70;99.90
56374;DHT22;58212;47.034;7.376;2022-12-18T04:46:13;0.70;99.90
56374;DHT22;58212;47.034;7.376;2022-12-18T04:48:40;0.70;99.90
56374;DHT22;58212;47.034;7.376;2022-12-18T04:51:07;0.70;99.90
56374;DHT22;58212;47.034;7.376;2022-12-18T04:53:34;0.70;99.90
56374;DHT22;58212;47.034;7.376;2022-12-18T04:56:05;0.70;99.90
56374;DHT22;58212;47.034;7.376;2022-12-18T04:58:33;0.70;99.90
56374;DHT22;58212;47.034;7.376;2022-12-18T05:01:01;0.70;99.90
56374;DHT22;58212;47.034;7.376;2022-12-18T05:03:30;0.70;99.90
56374;DHT22;58212;47.034;7.376;2022-12-18T05:05:57;0.80;99.90
56374;DHT22;58212;47.034;7.376;2022-12-18T05:08:24;0.80;99.90
56374;DHT22;58212;47.034;7.376;2022-12-18T05:10:58;0.80;99.90
56374;DHT22;58212;47.034;7.376;2022-12-18T05:13:26;0.80;99.90
56374;DHT22;58212;47.034;7.376;2022-12-18T05:15:53;0.80;99.90
56374;DHT22;58212;47.034;7.376;2022-12-18T05:18:20;0.80;99.90
56374;DHT22;58212;47.034;7.376;2022-12-18T05:20:49;0.80;99.90
56374;DHT22;58212;47.034;7.376;2022-12-18T05:23:16;0.80;99.90
56374;DHT22;58212;47.034;7.376;2022-12-18T05:25:47;0.70;99.90
56374;DHT22;58212;47.034;7.376;2022-12-18T05:28:16;0.70;99.90
56374;DHT22;58212;47.034;7.376;2022-12-18T05:30:47;0.70;99.90
56374;DHT22;58212;47.034;7.376;2022-12-18T05:33:15;0.70;99.90
56374;DHT22;58212;47.034;7.376;2022-12-18T05:35:44;0.70;99.90
56374;DHT22;58212;47.034;7.376;2022-12-18T05:38:12;0.80;99.90
56374;DHT22;58212;47.034;7.376;2022-12-18T05:40:41;0.80;99.90
56374;DHT22;58212;47.034;7.376;2022-12-18T05:43:09;0.90;99.90
56374;DHT22;58212;47.034;7.376;2022-12-18T05:45:37;0.90;99.90
56374;DHT22;58212;47.034;7.376;2022-12-18T05:48:04;0.90;99.90
56374;DHT22;58212;47.034;7.376;2022-12-18T05:50:34;0.90;99.90
56374;DHT22;58212;47.034;7.376;2022-12-18T05:53:01;0.80;99.90
56374;DHT22;58212;47.034;7.376;2022-12-18T05:55:32;0.80;99.90
56374;DHT22;58212;47.034;7.376;2022-12-18T05:57:59;0.80;99.90
56374;DHT22;58212;47.034;7.376;2022-12-18T06:00:26;0.80;99.90
56374;DHT22;58212;47.034;7.376;2022-12-18T06:02:53;0.80;99.90
56374;DHT22;58212;47.034;7.376;2022-12-18T06:05:21;0.80;99.90
56374;DHT22;58212;47.034;7.376;2022-12-18T06:07:48;0.80;99.90
56374;DHT22;58212;47.034;7.376;2022-12-18T06:10:15;0.90;99.90
56374;DHT22;58212;47.034;7.376;2022-12-18T06:12:44;0.90;99.90
56374;DHT22;58212;47.034;7.376;2022-12-18T06:15:11;0.90;99.90
56374;DHT22;58212;47.034;7.376;2022-12-18T06:17:38;0.80;99.90
56374;DHT22;58212;47.034;7.376;2022-12-18T06:20:06;0.90;99.90
56374;DHT22;58212;47.034;7.376;2022-12-18T06:22:33;1.00;99.90
56374;DHT22;58212;47.034;7.376;2022-12-18T06:25:01;1.00;99.90
56374;DHT22;58212;47.034;7.376;2022-12-18T06:27:28;1.00;99.90
56374;DHT22;58212;47.034;7.376;2022-12-18T06:29:57;1.00;99.90
56374;DHT22;58212;47.034;7.376;2022-12-18T06:32:24;1.00;99.90
56374;DHT22;58212;47.034;7.376;2022-12-18T06:34:51;0.90;99.90
56374;DHT22;58212;47.034;7.376;2022-12-18T06:37:18;0.90;99.90
56374;DHT22;58212;47.034;7.376;2022-12-18T06:39:45;0.90;99.90
56374;DHT22;58212;47.034;7.376;2022-12-18T06:42:12;0.80;99.90
56374;DHT22;58212;47.034;7.376;2022-12-18T06:44:40;0.80;99.90
56374;DHT22;58212;47.034;7.376;2022-12-18T06:47:09;0.90;99.90
56374;DHT22;58212;47.034;7.376;2022-12-18T06:49:36;0.90;99.90
56374;DHT22;58212;47.034;7.376;2022-12-18T06:52:03;0.90;99.90
56374;DHT22;58212;47.034;7.376;2022-12-18T06:54:30;0.90;99.90
56374;DHT22;58212;47.034;7.376;2022-12-18T06:56:57;0.90;99.90
56374;DHT22;58212;47.034;7.376;2022-12-18T06:59:24;0.80;99.90
56374;DHT22;58212;47.034;7.376;2022-12-18T07:01:51;0.70;99.90
56374;DHT22;58212;47.034;7.376;2022-12-18T07:04:20;0.80;99.90
56374;DHT22;58212;47.034;7.376;2022-12-18T07:06:47;0.90;99.90
56374;DHT22;58212;47.034;7.376;2022-12-18T07:09:14;0.90;99.90
56374;DHT22;58212;47.034;7.376;2022-12-18T07:11:43;0.60;99.90
56374;DHT22;58212;47.034;7.376;2022-12-18T07:14:10;0.80;99.90
56374;DHT22;58212;47.034;7.376;2022-12-18T07:16:37;0.70;99.90
56374;DHT22;58212;47.034;7.376;2022-12-18T07:19:07;0.80;99.90
56374;DHT22;58212;47.034;7.376;2022-12-18T07:21:35;0.80;99.90
56374;DHT22;58212;47.034;7.376;2022-12-18T07:24:02;0.80;99.90
56374;DHT22;58212;47.034;7.376;2022-12-18T07:26:29;0.90;99.90
56374;DHT22;58212;47.034;7.376;2022-12-18T07:28:57;0.80;99.90
56374;DHT22;58212;47.034;7.376;2022-12-18T07:31:25;0.60;99.90
56374;DHT22;58212;47.034;7.376;2022-12-18T07:33:52;0.80;99.90
56374;DHT22;58212;47.034;7.376;2022-12-18T07:36:23;0.80;99.90
56374;DHT22;58212;47.034;7.376;2022-12-18T07:38:52;0.90;99.90
56374;DHT22;58212;47.034;7.376;2022-12-18T07:41:19;1.00;99.90
56374;DHT22;58212;47.034;7.376;2022-12-18T07:43:46;0.90;99.90
56374;DHT22;58212;47.034;7.376;2022-12-18T07:46:14;1.10;99.90
56374;DHT22;58212;47.034;7.376;2022-12-18T07:48:41;1.00;99.90
56374;DHT22;58212;47.034;7.376;2022-12-18T07:51:09;1.00;99.90
56374;DHT22;58212;47.034;7.376;2022-12-18T07:53:37;0.90;99.90
56374;DHT22;58212;47.034;7.376;2022-12-18T07:56:07;0.90;99.90
56374;DHT22;58212;47.034;7.376;2022-12-18T07:58:35;0.90;99.90
56374;DHT22;58212;47.034;7.376;2022-12-18T08:01:03;0.80;99.90
56374;DHT22;58212;47.034;7.376;2022-12-18T08:03:31;0.80;99.90
56374;DHT22;58212;47.034;7.376;2022-12-18T08:05:59;1.10;99.90
56374;DHT22;58212;47.034;7.376;2022-12-18T08:08:26;1.10;99.90
56374;DHT22;58212;47.034;7.376;2022-12-18T08:10:57;1.30;99.90
56374;DHT22;58212;47.034;7.376;2022-12-18T08:13:25;1.20;99.90
56374;DHT22;58212;47.034;7.376;2022-12-18T08:15:57;1.40;99.90
56374;DHT22;58212;47.034;7.376;2022-12-18T08:18:24;1.40;99.90
56374;DHT22;58212;47.034;7.376;2022-12-18T08:20:54;1.50;99.90
56374;DHT22;58212;47.034;7.376;2022-12-18T08:23:21;1.50;99.90
56374;DHT22;58212;47.034;7.376;2022-12-18T08:25:48;1.60;99.90
56374;DHT22;58212;47.034;7.376;2022-12-18T08:28:16;1.70;99.90
56374;DHT22;58212;47.034;7.376;2022-12-18T08:30:45;1.70;99.90
56374;DHT22;58212;47.034;7.376;2022-12-18T08:33:12;1.70;99.90
56374;DHT22;58212;47.034;7.376;2022-12-18T08:35:39;1.70;99.90
56374;DHT22;58212;47.034;7.376;2022-12-18T08:38:06;1.80;99.90
56374;DHT22;58212;47.034;7.376;2022-12-18T08:40:35;1.70;99.90
56374;DHT22;58212;47.034;7.376;2022-12-18T08:43:02;1.80;99.90
56374;DHT22;58212;47.034;7.376;2022-12-18T08:45:48;1.70;99.90
56374;DHT22;58212;47.034;7.376;2022-12-18T08:48:15;1.70;99.90
56374;DHT22;58212;47.034;7.376;2022-12-18T08:50:42;1.60;99.90
56374;DHT22;58212;47.034;7.376;2022-12-18T08:53:09;1.70;99.90
56374;DHT22;58212;47.034;7.376;2022-12-18T08:55:36;1.70;99.90
56374;DHT22;58212;47.034;7.376;2022-12-18T08:58:03;1.80;99.90
56374;DHT22;58212;47.034;7.376;2022-12-18T09:00:30;1.90;99.90
56374;DHT22;58212;47.034;7.376;2022-12-18T09:02:58;1.90;99.90
56374;DHT22;58212;47.034;7.376;2022-12-18T09:05:25;1.90;99.90
56374;DHT22;58212;47.034;7.376;2022-12-18T09:07:52;1.80;99.90
56374;DHT22;58212;47.034;7.376;2022-12-18T09:10:19;1.80;99.90
56374;DHT22;58212;47.034;7.376;2022-12-18T09:12:46;1.90;99.90
56374;DHT22;58212;47.034;7.376;2022-12-18T09:15:13;2.00;99.90
56374;DHT22;58212;47.034;7.376;2022-12-18T09:17:40;2.10;99.90
56374;DHT22;58212;47.034;7.376;2022-12-18T09:20:11;2.10;99.90
56374;DHT22;58212;47.034;7.376;2022-12-18T09:22:38;2.10;99.90
56374;DHT22;58212;47.034;7.376;2022-12-18T09:25:05;2.10;99.90
56374;DHT22;58212;47.034;7.376;2022-12-18T09:27:33;2.20;99.90
56374;DHT22;58212;47.034;7.376;2022-12-18T09:30:00;2.20;99.90
56374;DHT22;58212;47.034;7.376;2022-12-18T09:32:27;2.10;99.90
56374;DHT22;58212;47.034;7.376;2022-12-18T09:34:55;2.20;99.90
56374;DHT22;58212;47.034;7.376;2022-12-18T09:37:25;2.20;99.90
56374;DHT22;58212;47.034;7.376;2022-12-18T09:39:52;2.20;99.90
56374;DHT22;58212;47.034;7.376;2022-12-18T09:42:21;2.30;99.90
56374;DHT22;58212;47.034;7.376;2022-12-18T09:44:51;2.10;99.90
56374;DHT22;58212;47.034;7.376;2022-12-18T09:47:22;2.10;99.90
56374;DHT22;58212;47.034;7.376;2022-12-18T09:49:52;2.10;99.90
56374;DHT22;58212;47.034;7.376;2022-12-18T09:52:26;2.20;99.90
56374;DHT22;58212;47.034;7.376;2022-12-18T09:55:00;2.30;99.90
56374;DHT22;58212;47.034;7.376;2022-12-18T09:57:33;1.80;99.90
56374;DHT22;58212;47.034;7.376;2022-12-18T10:00:15;1.80;99.90
56374;DHT22;58212;47.034;7.376;2022-12-18T10:02:43;1.90;99.90
56374;DHT22;58212;47.034;7.376;2022-12-18T10:05:13;1.60;99.90
56374;DHT22;58212;47.034;7.376;2022-12-18T10:07:55;1.60;99.90
56374;DHT22;58212;47.034;7.376;2022-12-18T10:10:33;1.50;99.90
56374;DHT22;58212;47.034;7.376;2022-12-18T10:13:12;1.60;99.90
56374;DHT22;58212;47.034;7.376;2022-12-18T10:15:53;2.00;99.90
56374;DHT22;58212;47.034;7.376;2022-12-18T10:18:29;2.30;99.90
56374;DHT22;58212;47.034;7.376;2022-12-18T10:21:02;2.40;99.90
56374;DHT22;58212;47.034;7.376;2022-12-18T10:23:35;2.50;99.90
56374;DHT22;58212;47.034;7.376;2022-12-18T10:26:06;2.70;99.90
56374;DHT22;58212;47.034;7.376;2022-12-18T10:28:36;2.70;99.90
56374;DHT22;58212;47.034;7.376;2022-12-18T10:31:05;2.50;99.90
56374;DHT22;58212;47.034;7.376;2022-12-18T10:33:33;2.70;99.90
56374;DHT22;58212;47.034;7.376;2022-12-18T10:36:01;2.60;99.90
56374;DHT22;58212;47.034;7.376;2022-12-18T10:38:31;2.10;99.90
56374;DHT22;58212;47.034;7.376;2022-12-18T10:40:59;2.40;99.90
56374;DHT22;58212;47.034;7.376;2022-12-18T10:43:28;2.60;99.90
56374;DHT22;58212;47.034;7.376;2022-12-18T10:50:40;2.40;99.90
56374;DHT22;58212;47.034;7.376;2022-12-18T10:53:19;2.10;99.90
56374;DHT22;58212;47.034;7.376;2022-12-18T10:55:47;1.80;99.90
56374;DHT22;58212;47.034;7.376;2022-12-18T10:58:20;2.10;99.90
56374;DHT22;58212;47.034;7.376;2022-12-18T11:01:03;2.40;99.90
56374;DHT22;58212;47.034;7.376;2022-12-18T11:03:32;2.50;99.90
56374;DHT22;58212;47.034;7.376;2022-12-18T11:06:06;2.40;99.90
56374;DHT22;58212;47.034;7.376;2022-12-18T11:08:33;2.60;99.90
56374;DHT22;58212;47.034;7.376;2022-12-18T11:11:00;2.70;99.90
56374;DHT22;58212;47.034;7.376;2022-12-18T11:13:31;2.80;99.90
56374;DHT22;58212;47.034;7.376;2022-12-18T11:15:59;2.70;99.90
56374;DHT22;58212;47.034;7.376;2022-12-18T11:18:29;2.60;99.90
56374;DHT22;58212;47.034;7.376;2022-12-18T11:20:58;2.70;99.90
56374;DHT22;58212;47.034;7.376;2022-12-18T11:23:27;2.80;99.90
56374;DHT22;58212;47.034;7.376;2022-12-18T11:25:57;2.70;99.90
56374;DHT22;58212;47.034;7.376;2022-12-18T11:28:28;2.60;99.90
56374;DHT22;58212;47.034;7.376;2022-12-18T11:31:20;2.50;99.90
56374;DHT22;58212;47.034;7.376;2022-12-18T11:34:00;2.50;99.90
56374;DHT22;58212;47.034;7.376;2022-12-18T11:36:32;2.90;99.90
56374;DHT22;58212;47.034;7.376;2022-12-18T11:39:13;3.20;99.90
56374;DHT22;58212;47.034;7.376;2022-12-18T11:41:46;3.40;99.90
56374;DHT22;58212;47.034;7.376;2022-12-18T11:44:40;3.50;99.90
56374;DHT22;58212;47.034;7.376;2022-12-18T11:47:13;3.40;99.90
56374;DHT22;58212;47.034;7.376;2022-12-18T11:49:47;3.10;99.90
56374;DHT22;58212;47.034;7.376;2022-12-18T11:52:19;3.00;99.90
56374;DHT22;58212;47.034;7.376;2022-12-18T11:54:52;3.10;99.90
56374;DHT22;58212;47.034;7.376;2022-12-18T11:57:30;3.20;99.90
56374;DHT22;58212;47.034;7.376;2022-12-18T12:00:03;2.70;99.90
56374;DHT22;58212;47.034;7.376;2022-12-18T12:02:56;2.80;99.90
56374;DHT22;58212;47.034;7.376;2022-12-18T12:05:38;2.90;99.90
56374;DHT22;58212;47.034;7.376;2022-12-18T12:08:13;2.70;99.90
56374;DHT22;58212;47.034;7.376;2022-12-18T12:10:50;3.00;99.90
56374;DHT22;58212;47.034;7.376;2022-12-18T12:13:34;3.10;99.90
56374;DHT22;58212;47.034;7.376;2022-12-18T12:16:12;3.20;99.90
56374;DHT22;58212;47.034;7.376;2022-12-18T12:18:53;3.20;99.90
56374;DHT22;58212;47.034;7.376;2022-12-18T12:21:27;3.30;99.90
56374;DHT22;58212;47.034;7.376;2022-12-18T12:23:59;3.40;99.90
56374;DHT22;58212;47.034;7.376;2022-12-18T12:26:35;3.40;99.90
56374;DHT22;58212;47.034;7.376;2022-12-18T12:29:19;3.40;99.90
56374;DHT22;58212;47.034;7.376;2022-12-18T12:31:58;3.40;99.90
56374;DHT22;58212;47.034;7.376;2022-12-18T12:34:33;3.40;99.90
56374;DHT22;58212;47.034;7.376;2022-12-18T12:37:11;3.40;99.90
56374;DHT22;58212;47.034;7.376;2022-12-18T12:39:44;3.30;99.90
56374;DHT22;58212;47.034;7.376;2022-12-18T12:42:18;3.30;99.90
56374;DHT22;58212;47.034;7.376;2022-12-18T12:45:07;3.30;99.90
56374;DHT22;58212;47.034;7.376;2022-12-18T12:47:42;3.30;99.90
56374;DHT22;58212;47.034;7.376;2022-12-18T12:50:15;3.30;99.90
56374;DHT22;58212;47.034;7.376;2022-12-18T12:52:45;3.30;99.90
56374;DHT22;58212;47.034;7.376;2022-12-18T12:55:16;3.20;99.90
56374;DHT22;58212;47.034;7.376;2022-12-18T12:57:54;3.20;99.90
56374;DHT22;58212;47.034;7.376;2022-12-18T13:00:21;3.10;99.90
56374;DHT22;58212;47.034;7.376;2022-12-18T13:02:54;3.00;99.90
56374;DHT22;58212;47.034;7.376;2022-12-18T13:05:28;3.20;99.90
56374;DHT22;58212;47.034;7.376;2022-12-18T13:08:00;3.30;99.90
56374;DHT22;58212;47.034;7.376;2022-12-18T13:10:33;3.30;99.90
56374;DHT22;58212;47.034;7.376;2022-12-18T13:13:04;3.20;99.90
56374;DHT22;58212;47.034;7.376;2022-12-18T13:15:34;3.30;99.90
56374;DHT22;58212;47.034;7.376;2022-12-18T13:18:14;3.30;99.90
56374;DHT22;58212;47.034;7.376;2022-12-18T13:20:44;3.30;99.90
56374;DHT22;58212;47.034;7.376;2022-12-18T13:23:35;3.20;99.90
56374;DHT22;58212;47.034;7.376;2022-12-18T13:26:28;3.20;99.90
56374;DHT22;58212;47.034;7.376;2022-12-18T13:29:00;3.30;99.90
56374;DHT22;58212;47.034;7.376;2022-12-18T13:31:58;3.10;99.90
56374;DHT22;58212;47.034;7.376;2022-12-18T13:34:27;3.20;99.90
56374;DHT22;58212;47.034;7.376;2022-12-18T13:36:57;3.20;99.90
56374;DHT22;58212;47.034;7.376;2022-12-18T13:39:48;3.20;99.90
56374;DHT22;58212;47.034;7.376;2022-12-18T13:42:42;3.20;99.90
56374;DHT22;58212;47.034;7.376;2022-12-18T13:45:42;3.20;99.90
56374;DHT22;58212;47.034;7.376;2022-12-18T13:48:18;3.20;99.90
56374;DHT22;58212;47.034;7.376;2022-12-18T13:50:49;3.20;99.90
56374;DHT22;58212;47.034;7.376;2022-12-18T13:53:22;3.20;99.90
56374;DHT22;58212;47.034;7.376;2022-12-18T13:55:51;3.20;99.90
56374;DHT22;58212;47.034;7.376;2022-12-18T13:58:18;3.10;99.90
56374;DHT22;58212;47.034;7.376;2022-12-18T14:00:45;3.00;99.90
56374;DHT22;58212;47.034;7.376;2022-12-18T14:03:19;3.00;99.90
56374;DHT22;58212;47.034;7.376;2022-12-18T14:05:53;3.00;99.90
56374;DHT22;58212;47.034;7.376;2022-12-18T14:08:21;2.90;99.90
56374;DHT22;58212;47.034;7.376;2022-12-18T14:10:54;2.90;99.90
56374;DHT22;58212;47.034;7.376;2022-12-18T14:13:26;2.70;99.90
56374;DHT22;58212;47.034;7.376;2022-12-18T14:16:04;2.80;99.90
56374;DHT22;58212;47.034;7.376;2022-12-18T14:18:38;2.80;99.90
56374;DHT22;58212;47.034;7.376;2022-12-18T14:21:18;2.70;99.90
56374;DHT22;58212;47.034;7.376;2022-12-18T14:23:46;2.70;99.90
56374;DHT22;58212;47.034;7.376;2022-12-18T14:26:24;2.70;99.90
56374;DHT22;58212;47.034;7.376;2022-12-18T14:28:53;2.70;99.90
56374;DHT22;58212;47.034;7.376;2022-12-18T14:31:25;2.60;99.90
56374;DHT22;58212;47.034;7.376;2022-12-18T14:33:54;2.60;99.90
56374;DHT22;58212;47.034;7.376;2022-12-18T14:36:23;2.50;99.90
56374;DHT22;58212;47.034;7.376;2022-12-18T14:38:52;2.50;99.90
56374;DHT22;58212;47.034;7.376;2022-12-18T14:41:22;2.50;99.90
56374;DHT22;58212;47.034;7.376;2022-12-18T14:43:50;2.40;99.90
56374;DHT22;58212;47.034;7.376;2022-12-18T14:46:30;2.40;99.90
56374;DHT22;58212;47.034;7.376;2022-12-18T14:48:59;2.30;99.90
56374;DHT22;58212;47.034;7.376;2022-12-18T14:51:28;2.30;99.90
56374;DHT22;58212;47.034;7.376;2022-12-18T14:53:57;2.20;99.90
56374;DHT22;58212;47.034;7.376;2022-12-18T14:56:30;2.20;99.90
56374;DHT22;58212;47.034;7.376;2022-12-18T14:59:00;2.20;99.90
56374;DHT22;58212;47.034;7.376;2022-12-18T15:01:30;2.20;99.90
56374;DHT22;58212;47.034;7.376;2022-12-18T15:03:59;2.10;99.90
56374;DHT22;58212;47.034;7.376;2022-12-18T15:06:32;2.00;99.90
56374;DHT22;58212;47.034;7.376;2022-12-18T15:09:02;2.00;99.90
56374;DHT22;58212;47.034;7.376;2022-12-18T15:11:35;1.90;99.90
56374;DHT22;58212;47.034;7.376;2022-12-18T15:14:23;1.90;99.90
56374;DHT22;58212;47.034;7.376;2022-12-18T15:16:53;1.80;99.90
56374;DHT22;58212;47.034;7.376;2022-12-18T15:19:21;1.80;99.90
56374;DHT22;58212;47.034;7.376;2022-12-18T15:21:48;1.80;99.90
56374;DHT22;58212;47.034;7.376;2022-12-18T15:24:29;1.80;99.90
56374;DHT22;58212;47.034;7.376;2022-12-18T15:26:58;1.70;99.90
56374;DHT22;58212;47.034;7.376;2022-12-18T15:29:25;1.80;99.90
56374;DHT22;58212;47.034;7.376;2022-12-18T15:32:02;1.70;99.90
56374;DHT22;58212;47.034;7.376;2022-12-18T15:34:30;1.70;99.90
56374;DHT22;58212;47.034;7.376;2022-12-18T15:36:59;1.50;99.90
56374;DHT22;58212;47.034;7.376;2022-12-18T15:39:26;1.60;99.90
56374;DHT22;58212;47.034;7.376;2022-12-18T15:41:53;1.50;99.90
56374;DHT22;58212;47.034;7.376;2022-12-18T15:44:39;1.40;99.90
56374;DHT22;58212;47.034;7.376;2022-12-18T15:47:10;1.40;99.90
56374;DHT22;58212;47.034;7.376;2022-12-18T15:49:40;1.30;99.90
56374;DHT22;58212;47.034;7.376;2022-12-18T15:52:10;1.30;99.90
56374;DHT22;58212;47.034;7.376;2022-12-18T15:54:38;1.40;99.90
56374;DHT22;58212;47.034;7.376;2022-12-18T15:57:23;1.50;99.90
56374;DHT22;58212;47.034;7.376;2022-12-18T15:59:55;1.50;99.90
56374;DHT22;58212;47.034;7.376;2022-12-18T16:02:24;1.40;99.90
56374;DHT22;58212;47.034;7.376;2022-12-18T16:04:53;1.40;99.90
56374;DHT22;58212;47.034;7.376;2022-12-18T16:07:20;1.40;99.90
56374;DHT22;58212;47.034;7.376;2022-12-18T16:09:47;1.30;99.90
56374;DHT22;58212;47.034;7.376;2022-12-18T16:12:18;1.40;99.90
56374;DHT22;58212;47.034;7.376;2022-12-18T16:14:45;1.40;99.90